Time;durP1;ratioP1;P1;durP2;ratioP2;P2;SDS_P1;SDS_P2;PMS_P1;PMS_P2;Temp;Humidity;BMP_temperature;BMP_pressure;BME280_temperature;BME280_humidity;BME280_pressure;Samples;Min_cycle;Max_cycle;Signal;HPM_P1;HPM_P2
2022/08/25 00:00:44;;;;;;;22.33;15.52;;;;;;;;;;5021325;28;20447;-84
2022/08/25 00:03:12;;;;;;;23.30;16.33;;;;;;;;;;5024616;28;20485;-84
2022/08/25 00:05:40;;;;;;;21.08;15.25;;;;;;;;;;5025604;28;20618;-83
2022/08/25 00:08:09;;;;;;;24.10;16.38;;;;;;;;;;5052588;28;20559;-83
2022/08/25 00:10:35;;;;;;;28.10;17.85;;;;;;;;;;5020286;28;20024;-85
2022/08/25 00:13:01;;;;;;;27.05;17.33;;;;;;;;;;5053113;28;20103;-83
2022/08/25 00:15:27;;;;;;;20.20;15.77;;;;;;;;;;5021894;28;20029;-83
2022/08/25 00:17:53;;;;;;;24.95;16.52;;;;;;;;;;5022511;28;20025;-83
2022/08/25 00:20:18;;;;;;;20.92;15.93;;;;;;;;;;5053991;28;20027;-84
2022/08/25 00:22:44;;;;;;;20.45;14.95;;;;;;;;;;5022508;28;20049;-85
2022/08/25 00:25:10;;;;;;;23.77;15.73;;;;;;;;;;5036534;28;20021;-83
2022/08/25 00:27:36;;;;;;;19.02;14.98;;;;;;;;;;5037304;28;20021;-84
2022/08/25 00:30:01;;;;;;;24.98;15.40;;;;;;;;;;5020924;28;20068;-84
2022/08/25 00:32:26;;;;;;;20.88;16.00;;;;;;;;;;5024600;28;20473;-84
2022/08/25 00:34:52;;;;;;;20.98;14.95;;;;;;;;;;5022411;28;20029;-84
2022/08/25 00:37:18;;;;;;;24.17;16.00;;;;;;;;;;5052904;28;20417;-84
2022/08/25 00:39:46;;;;;;;21.58;15.73;;;;;;;;;;5022222;28;20029;-84
2022/08/25 00:42:11;;;;;;;25.85;17.42;;;;;;;;;;5017564;28;20037;-84
2022/08/25 00:44:37;;;;;;;21.48;15.57;;;;;;;;;;5022562;28;20495;-84
2022/08/25 00:47:03;;;;;;;20.75;14.70;;;;;;;;;;5017990;28;20040;-83
2022/08/25 00:49:36;;;;;;;21.42;15.60;;;;;;;;;;5050236;28;20029;-83
2022/08/25 00:52:03;;;;;;;20.92;15.90;;;;;;;;;;5020767;28;20384;-85
2022/08/25 00:54:33;;;;;;;22.95;15.50;;;;;;;;;;5020882;28;20064;-84
2022/08/25 00:56:59;;;;;;;19.63;15.20;;;;;;;;;;5037676;28;20493;-85
2022/08/25 00:59:25;;;;;;;20.73;16.50;;;;;;;;;;5037507;28;20026;-84
2022/08/25 01:01:52;;;;;;;23.98;16.80;;;;;;;;;;5039716;28;20029;-85
2022/08/25 01:04:18;;;;;;;20.17;14.55;;;;;;;;;;5029174;28;20123;-84
2022/08/25 01:06:43;;;;;;;22.75;15.00;;;;;;;;;;5036913;28;20072;-84
2022/08/25 01:09:09;;;;;;;21.77;14.73;;;;;;;;;;5056316;28;20026;-83
2022/08/25 01:11:35;;;;;;;22.30;15.40;;;;;;;;;;5038311;28;20049;-85
2022/08/25 01:14:05;;;;;;;21.63;15.68;;;;;;;;;;5022018;28;20040;-84
2022/08/25 01:16:30;;;;;;;22.15;14.38;;;;;;;;;;5022124;28;20024;-84
2022/08/25 01:18:56;;;;;;;22.35;15.50;;;;;;;;;;5052298;28;20104;-83
2022/08/25 01:21:23;;;;;;;25.40;15.68;;;;;;;;;;5018027;28;20025;-84
2022/08/25 01:23:48;;;;;;;19.92;13.77;;;;;;;;;;5035791;28;20067;-83
2022/08/25 01:26:25;;;;;;;18.77;13.93;;;;;;;;;;5018334;28;20033;-84
2022/08/25 01:31:36;;;;;;;21.40;15.35;;;;;;;;;;5022111;28;20036;-83
2022/08/25 01:34:02;;;;;;;19.08;13.75;;;;;;;;;;5019072;28;20022;-84
2022/08/25 01:36:28;;;;;;;20.95;15.75;;;;;;;;;;5036873;28;20425;-83
2022/08/25 01:38:53;;;;;;;16.80;14.75;;;;;;;;;;5018706;28;20017;-85
2022/08/25 01:41:24;;;;;;;19.77;14.65;;;;;;;;;;5018844;28;20045;-84
2022/08/25 01:43:52;;;;;;;20.77;14.00;;;;;;;;;;5053735;28;20024;-85
2022/08/25 01:46:17;;;;;;;19.08;13.23;;;;;;;;;;5019733;28;20109;-83
2022/08/25 01:48:43;;;;;;;19.17;12.90;;;;;;;;;;5020962;28;20030;-83
2022/08/25 01:51:08;;;;;;;22.83;13.88;;;;;;;;;;5021329;28;20053;-83
2022/08/25 01:53:33;;;;;;;18.42;13.13;;;;;;;;;;5035912;28;20019;-84
2022/08/25 01:56:01;;;;;;;17.98;13.32;;;;;;;;;;5022990;28;20072;-84
2022/08/25 01:58:28;;;;;;;19.30;12.63;;;;;;;;;;5036377;28;20026;-83
2022/08/25 02:00:56;;;;;;;24.38;13.65;;;;;;;;;;5018870;28;20041;-83
2022/08/25 02:03:23;;;;;;;14.68;11.60;;;;;;;;;;5016726;28;20041;-84
2022/08/25 02:05:48;;;;;;;18.23;11.85;;;;;;;;;;5037298;28;20537;-84
2022/08/25 02:08:13;;;;;;;17.95;11.43;;;;;;;;;;5020389;28;20481;-84
2022/08/25 02:10:39;;;;;;;17.88;13.18;;;;;;;;;;5022258;28;20025;-84
2022/08/25 02:13:04;;;;;;;18.05;11.63;;;;;;;;;;5048920;28;20045;-83
2022/08/25 02:15:30;;;;;;;17.05;13.38;;;;;;;;;;5034404;28;20424;-84
2022/08/25 02:17:56;;;;;;;17.85;11.85;;;;;;;;;;5021078;28;20104;-83
2022/08/25 02:20:22;;;;;;;18.20;13.10;;;;;;;;;;5035260;28;20017;-84
2022/08/25 02:22:48;;;;;;;17.88;11.88;;;;;;;;;;5018037;28;20493;-84
2022/08/25 02:25:14;;;;;;;18.58;11.38;;;;;;;;;;5023264;28;20030;-83
2022/08/25 02:27:39;;;;;;;18.42;11.25;;;;;;;;;;5036437;28;20022;-84
2022/08/25 02:30:05;;;;;;;15.70;10.80;;;;;;;;;;5022835;28;20366;-84
2022/08/25 02:32:30;;;;;;;13.40;10.70;;;;;;;;;;5022164;28;20258;-84
2022/08/25 02:34:55;;;;;;;19.40;11.85;;;;;;;;;;5014646;28;20079;-84
2022/08/25 02:37:21;;;;;;;13.25;10.15;;;;;;;;;;5020643;28;20342;-83
2022/08/25 02:39:46;;;;;;;14.40;11.15;;;;;;;;;;5020968;28;20025;-84
2022/08/25 02:42:12;;;;;;;15.15;11.10;;;;;;;;;;5052093;28;20041;-83
2022/08/25 02:44:37;;;;;;;14.48;9.73;;;;;;;;;;5025095;28;20037;-84
2022/08/25 02:47:02;;;;;;;10.13;8.20;;;;;;;;;;5021620;28;20021;-84
2022/08/25 02:49:28;;;;;;;16.50;10.02;;;;;;;;;;5019296;28;20061;-83
2022/08/25 02:51:53;;;;;;;13.52;10.20;;;;;;;;;;5020790;28;20029;-83
2022/08/25 02:54:19;;;;;;;13.98;9.77;;;;;;;;;;5033803;28;20049;-84
2022/08/25 02:56:47;;;;;;;15.00;10.57;;;;;;;;;;5034983;28;20017;-84
2022/08/25 02:59:13;;;;;;;16.60;9.18;;;;;;;;;;5019648;28;20053;-85
2022/08/25 03:01:38;;;;;;;13.82;9.68;;;;;;;;;;5022008;28;20060;-83
2022/08/25 03:04:03;;;;;;;13.00;9.35;;;;;;;;;;5029153;28;20052;-84
2022/08/25 03:06:29;;;;;;;12.27;9.73;;;;;;;;;;5022985;28;20033;-85
2022/08/25 03:08:54;;;;;;;17.58;10.68;;;;;;;;;;5016731;28;20350;-83
2022/08/25 03:11:20;;;;;;;14.10;9.98;;;;;;;;;;5036146;28;20767;-85
2022/08/25 03:13:45;;;;;;;13.07;8.75;;;;;;;;;;5023172;28;20071;-84
2022/08/25 03:16:11;;;;;;;15.10;9.63;;;;;;;;;;5036760;28;20068;-84
2022/08/25 03:18:38;;;;;;;13.85;8.40;;;;;;;;;;5031935;28;20391;-84
2022/08/25 03:21:03;;;;;;;14.85;10.02;;;;;;;;;;5014987;28;20125;-84
2022/08/25 03:23:29;;;;;;;13.27;8.40;;;;;;;;;;5035536;28;20489;-85
2022/08/25 03:28:41;;;;;;;10.73;8.52;;;;;;;;;;5021546;28;20028;-84
2022/08/25 03:31:07;;;;;;;9.55;8.23;;;;;;;;;;5040316;28;20075;-85
2022/08/25 03:33:32;;;;;;;12.35;9.77;;;;;;;;;;5028731;28;20572;-85
2022/08/25 03:35:58;;;;;;;15.77;8.43;;;;;;;;;;5024815;28;20116;-83
2022/08/25 03:38:24;;;;;;;13.60;8.93;;;;;;;;;;5038740;28;20390;-84
2022/08/25 03:40:50;;;;;;;15.60;8.90;;;;;;;;;;5039127;28;20109;-84
2022/08/25 03:43:19;;;;;;;12.23;8.02;;;;;;;;;;5023657;28;20029;-84
2022/08/25 03:45:47;;;;;;;11.63;9.05;;;;;;;;;;5040601;28;20034;-85
2022/08/25 03:48:13;;;;;;;12.75;8.20;;;;;;;;;;5037728;28;20068;-85
2022/08/25 03:50:45;;;;;;;11.50;8.35;;;;;;;;;;5053804;28;20112;-84
2022/08/25 03:53:11;;;;;;;15.25;8.98;;;;;;;;;;5019655;28;20044;-83
2022/08/25 03:55:36;;;;;;;16.65;7.88;;;;;;;;;;5022291;28;21012;-85
2022/08/25 03:58:01;;;;;;;11.27;8.50;;;;;;;;;;5053722;28;20022;-84
2022/08/25 04:00:26;;;;;;;11.85;7.85;;;;;;;;;;5038917;28;20120;-84
2022/08/25 04:02:52;;;;;;;10.63;7.55;;;;;;;;;;5023300;28;20042;-85
2022/08/25 04:05:17;;;;;;;11.07;7.88;;;;;;;;;;5023380;28;20033;-84
2022/08/25 04:07:42;;;;;;;10.77;7.45;;;;;;;;;;5039677;28;20025;-85
2022/08/25 04:10:09;;;;;;;16.95;8.65;;;;;;;;;;5037783;28;20512;-85
2022/08/25 04:12:34;;;;;;;11.43;7.90;;;;;;;;;;5024375;28;20049;-84
2022/08/25 04:15:00;;;;;;;10.43;7.50;;;;;;;;;;5055554;28;20052;-84
2022/08/25 04:17:25;;;;;;;12.15;8.13;;;;;;;;;;5023365;28;20043;-86
2022/08/25 04:19:50;;;;;;;16.83;8.90;;;;;;;;;;5021316;28;20307;-86
2022/08/25 04:22:16;;;;;;;10.73;7.35;;;;;;;;;;5019538;28;20420;-84
2022/08/25 04:24:41;;;;;;;17.08;9.38;;;;;;;;;;5038874;28;20017;-84
2022/08/25 04:27:06;;;;;;;14.02;7.60;;;;;;;;;;5036546;28;20468;-86
2022/08/25 04:29:31;;;;;;;10.73;8.13;;;;;;;;;;5038951;28;20140;-83
2022/08/25 04:31:56;;;;;;;11.18;7.20;;;;;;;;;;5030391;28;20025;-84
2022/08/25 04:34:23;;;;;;;13.77;7.43;;;;;;;;;;5035016;28;20630;-84
2022/08/25 04:36:49;;;;;;;11.32;6.80;;;;;;;;;;5038255;28;20770;-84
2022/08/25 04:39:15;;;;;;;9.45;7.82;;;;;;;;;;5038071;28;20301;-85
2022/08/25 04:41:40;;;;;;;11.60;6.88;;;;;;;;;;5036136;28;20061;-85
2022/08/25 04:44:05;;;;;;;16.33;8.23;;;;;;;;;;5041375;28;20116;-85
2022/08/25 04:46:32;;;;;;;11.68;7.30;;;;;;;;;;5025134;28;20509;-85
2022/08/25 04:48:58;;;;;;;9.50;6.97;;;;;;;;;;5036269;28;20128;-85
2022/08/25 04:51:26;;;;;;;10.43;7.93;;;;;;;;;;5022445;28;20036;-83
2022/08/25 04:53:52;;;;;;;10.57;6.72;;;;;;;;;;5023238;28;20543;-83
2022/08/25 04:56:18;;;;;;;10.20;7.45;;;;;;;;;;5024143;28;20059;-84
2022/08/25 04:58:45;;;;;;;9.00;6.75;;;;;;;;;;5018231;28;20025;-83
2022/08/25 05:01:15;;;;;;;9.93;6.80;;;;;;;;;;5021485;28;20470;-85
2022/08/25 05:03:41;;;;;;;9.10;6.47;;;;;;;;;;5038124;28;20112;-84
2022/08/25 05:06:06;;;;;;;11.38;7.03;;;;;;;;;;5037175;28;20033;-85
2022/08/25 05:08:31;;;;;;;12.48;7.60;;;;;;;;;;5022367;28;20030;-83
2022/08/25 05:10:57;;;;;;;10.05;6.82;;;;;;;;;;5025075;28;20500;-83
2022/08/25 05:13:23;;;;;;;12.52;7.20;;;;;;;;;;5022631;28;20563;-84
2022/08/25 05:15:56;;;;;;;8.32;6.88;;;;;;;;;;5025317;28;20033;-84
2022/08/25 05:18:22;;;;;;;18.20;8.70;;;;;;;;;;5025904;28;20462;-82
2022/08/25 05:20:47;;;;;;;9.55;7.38;;;;;;;;;;5027699;28;20116;-83
2022/08/25 05:23:12;;;;;;;9.40;7.15;;;;;;;;;;5040230;28;20411;-85
2022/08/25 05:25:38;;;;;;;11.60;6.95;;;;;;;;;;5040881;28;20029;-84
2022/08/25 05:28:03;;;;;;;11.18;7.10;;;;;;;;;;5023212;28;20029;-82
2022/08/25 05:30:28;;;;;;;10.57;6.65;;;;;;;;;;5038763;28;20040;-83
2022/08/25 05:32:53;;;;;;;11.10;7.90;;;;;;;;;;5027661;28;20040;-83
2022/08/25 05:35:19;;;;;;;11.38;7.95;;;;;;;;;;5040183;28;20044;-85
2022/08/25 05:37:44;;;;;;;13.48;6.90;;;;;;;;;;5021829;28;20022;-83
2022/08/25 05:40:09;;;;;;;11.25;7.80;;;;;;;;;;5019819;28;20033;-85
2022/08/25 05:42:35;;;;;;;11.18;7.32;;;;;;;;;;5021234;28;20125;-83
2022/08/25 05:45:01;;;;;;;15.27;6.97;;;;;;;;;;5054791;28;20033;-83
2022/08/25 05:47:26;;;;;;;10.27;7.50;;;;;;;;;;5040309;28;21895;-84
2022/08/25 05:49:51;;;;;;;15.45;7.03;;;;;;;;;;5053441;28;20033;-83
2022/08/25 05:52:17;;;;;;;11.25;7.57;;;;;;;;;;5017756;28;20112;-84
2022/08/25 05:54:42;;;;;;;7.97;6.85;;;;;;;;;;5014281;28;20080;-84
2022/08/25 05:57:08;;;;;;;14.98;7.30;;;;;;;;;;5023302;28;20043;-85
2022/08/25 05:59:33;;;;;;;11.15;7.75;;;;;;;;;;5036177;28;20477;-84
2022/08/25 06:04:42;;;;;;;13.70;7.78;;;;;;;;;;5021664;28;21823;-85
2022/08/25 06:07:08;;;;;;;8.88;7.13;;;;;;;;;;5024398;28;20030;-86
2022/08/25 06:09:33;;;;;;;9.95;7.57;;;;;;;;;;5027476;28;20029;-85
2022/08/25 06:11:58;;;;;;;11.75;7.28;;;;;;;;;;5043787;28;20490;-85
2022/08/25 06:14:23;;;;;;;13.80;7.60;;;;;;;;;;5028944;28;20059;-85
2022/08/25 06:16:50;;;;;;;15.90;7.88;;;;;;;;;;5027256;28;20028;-87
2022/08/25 06:19:16;;;;;;;14.73;8.52;;;;;;;;;;5026236;28;20025;-86
2022/08/25 06:21:42;;;;;;;13.05;7.78;;;;;;;;;;5027414;28;20060;-85
2022/08/25 06:24:09;;;;;;;19.08;8.80;;;;;;;;;;5021438;28;20056;-86
2022/08/25 06:26:34;;;;;;;13.82;8.35;;;;;;;;;;5041870;28;20060;-85
2022/08/25 06:29:00;;;;;;;10.77;7.90;;;;;;;;;;5031066;28;20061;-86
2022/08/25 06:31:25;;;;;;;11.40;7.57;;;;;;;;;;5025809;28;20452;-84
2022/08/25 06:33:51;;;;;;;14.07;8.32;;;;;;;;;;5042140;28;21449;-84
2022/08/25 06:36:16;;;;;;;12.68;7.45;;;;;;;;;;5023897;28;20028;-85
2022/08/25 06:38:42;;;;;;;15.00;7.95;;;;;;;;;;5040945;28;20029;-85
2022/08/25 06:41:09;;;;;;;14.23;8.40;;;;;;;;;;5040647;28;20045;-86
2022/08/25 06:43:34;;;;;;;12.73;7.45;;;;;;;;;;5044408;28;20172;-85
2022/08/25 06:46:13;;;;;;;11.90;7.60;;;;;;;;;;5041742;28;20052;-85
2022/08/25 06:48:39;;;;;;;13.70;8.90;;;;;;;;;;5039618;28;20500;-85
2022/08/25 06:51:08;;;;;;;11.68;8.55;;;;;;;;;;5051149;28;20080;-85
2022/08/25 06:53:34;;;;;;;11.45;7.90;;;;;;;;;;5041066;28;20508;-85
2022/08/25 06:55:59;;;;;;;14.43;7.10;;;;;;;;;;5042839;28;20038;-84
2022/08/25 06:58:25;;;;;;;17.23;9.13;;;;;;;;;;5027074;28;20427;-85
2022/08/25 07:00:50;;;;;;;13.82;7.38;;;;;;;;;;5045231;28;20025;-87
2022/08/25 07:03:18;;;;;;;15.82;8.05;;;;;;;;;;5045271;28;20029;-85
2022/08/25 07:05:51;;;;;;;11.68;7.18;;;;;;;;;;5046022;28;20037;-84
2022/08/25 07:08:19;;;;;;;13.48;7.13;;;;;;;;;;5049054;28;20036;-84
2022/08/25 07:10:45;;;;;;;9.18;7.18;;;;;;;;;;5034424;28;20521;-85
2022/08/25 07:13:10;;;;;;;17.48;8.23;;;;;;;;;;5046081;28;20030;-84
2022/08/25 07:15:39;;;;;;;13.00;7.10;;;;;;;;;;5049759;28;20032;-85
2022/08/25 07:18:06;;;;;;;13.35;7.28;;;;;;;;;;5044868;28;20320;-84
2022/08/25 07:20:34;;;;;;;11.60;7.65;;;;;;;;;;5034417;28;20043;-85
2022/08/25 07:23:00;;;;;;;14.63;7.60;;;;;;;;;;5049614;28;20407;-85
2022/08/25 07:25:25;;;;;;;16.25;8.40;;;;;;;;;;5052915;28;20038;-86
2022/08/25 07:27:52;;;;;;;13.60;9.20;;;;;;;;;;5049328;28;20037;-85
2022/08/25 07:30:17;;;;;;;13.05;7.80;;;;;;;;;;5032970;28;20088;-85
2022/08/25 07:32:46;;;;;;;10.25;7.60;;;;;;;;;;5031246;28;20434;-85
2022/08/25 07:35:15;;;;;;;14.95;7.93;;;;;;;;;;5053300;28;20037;-85
2022/08/25 07:37:43;;;;;;;12.20;8.57;;;;;;;;;;5029786;28;20258;-85
2022/08/25 07:40:14;;;;;;;16.50;8.10;;;;;;;;;;5047153;28;20040;-84
2022/08/25 07:42:40;;;;;;;14.02;7.55;;;;;;;;;;5030221;28;20030;-84
2022/08/25 07:45:06;;;;;;;10.80;7.18;;;;;;;;;;5044105;28;20049;-86
2022/08/25 07:47:32;;;;;;;15.20;7.93;;;;;;;;;;5026732;28;20061;-86
2022/08/25 07:49:57;;;;;;;17.95;8.27;;;;;;;;;;5042814;28;20025;-86
2022/08/25 07:52:22;;;;;;;14.75;8.40;;;;;;;;;;5029794;28;20018;-85
2022/08/25 07:54:48;;;;;;;13.57;8.23;;;;;;;;;;5033424;28;20836;-85
2022/08/25 07:57:14;;;;;;;13.27;8.32;;;;;;;;;;5031094;28;20033;-85
2022/08/25 07:59:40;;;;;;;11.00;6.88;;;;;;;;;;5030979;28;20029;-85
2022/08/25 08:02:09;;;;;;;13.90;8.00;;;;;;;;;;5048032;28;20033;-84
2022/08/25 08:04:35;;;;;;;12.52;6.93;;;;;;;;;;5046824;28;20041;-85
2022/08/25 08:07:00;;;;;;;14.48;8.30;;;;;;;;;;5034337;28;20033;-83
2022/08/25 08:09:25;;;;;;;14.32;8.40;;;;;;;;;;5030644;28;20037;-84
2022/08/25 08:11:54;;;;;;;14.30;8.05;;;;;;;;;;5027093;28;20109;-84
2022/08/25 08:14:20;;;;;;;22.23;9.60;;;;;;;;;;5030561;28;20029;-85
2022/08/25 08:16:45;;;;;;;13.27;8.02;;;;;;;;;;5040417;28;20032;-85
2022/08/25 08:19:11;;;;;;;13.48;7.95;;;;;;;;;;5051809;28;20116;-84
2022/08/25 08:21:37;;;;;;;18.35;8.23;;;;;;;;;;5038298;28;20029;-85
2022/08/25 08:24:04;;;;;;;14.98;8.07;;;;;;;;;;5058603;28;20503;-86
2022/08/25 08:26:29;;;;;;;13.68;8.45;;;;;;;;;;5049740;28;20021;-85
2022/08/25 08:28:54;;;;;;;15.52;7.30;;;;;;;;;;5036371;28;20037;-85
2022/08/25 08:31:33;;;;;;;9.98;6.93;;;;;;;;;;5051487;28;20026;-83
2022/08/25 08:34:02;;;;;;;11.68;7.55;;;;;;;;;;5056104;28;20029;-86
2022/08/25 08:36:27;;;;;;;13.50;6.93;;;;;;;;;;5035736;28;20033;-85
2022/08/25 08:38:53;;;;;;;13.50;7.95;;;;;;;;;;5043506;28;20122;-84
2022/08/25 08:44:18;;;;;;;14.40;8.55;;;;;;;;;;5037538;28;20056;-86
2022/08/25 08:47:04;;;;;;;17.58;7.80;;;;;;;;;;5038189;28;20068;-85
2022/08/25 08:49:38;;;;;;;13.63;7.85;;;;;;;;;;5020052;28;20183;-84
2022/08/25 08:52:05;;;;;;;14.55;7.38;;;;;;;;;;5045670;28;20037;-84
2022/08/25 08:54:32;;;;;;;12.88;7.88;;;;;;;;;;5023811;28;20040;-85
2022/08/25 08:57:08;;;;;;;15.02;7.68;;;;;;;;;;5047101;28;20041;-86
2022/08/25 08:59:42;;;;;;;13.68;7.32;;;;;;;;;;5032604;28;20104;-82
2022/08/25 09:02:12;;;;;;;15.85;8.23;;;;;;;;;;5055391;28;20029;-84
2022/08/25 09:04:40;;;;;;;9.95;7.22;;;;;;;;;;5046222;28;20045;-83
2022/08/25 09:07:25;;;;;;;10.90;6.65;;;;;;;;;;5028525;28;20030;-82
2022/08/25 09:09:50;;;;;;;15.98;8.13;;;;;;;;;;5027663;28;20077;-82
2022/08/25 09:12:18;;;;;;;14.60;7.25;;;;;;;;;;5030318;28;20091;-83
2022/08/25 09:14:46;;;;;;;12.82;7.40;;;;;;;;;;5044278;28;20017;-81
2022/08/25 09:17:30;;;;;;;14.70;7.47;;;;;;;;;;5044738;28;20036;-84
2022/08/25 09:20:01;;;;;;;15.68;8.10;;;;;;;;;;5028577;28;22168;-82
2022/08/25 09:22:30;;;;;;;9.90;7.47;;;;;;;;;;5041078;28;20401;-81
2022/08/25 09:25:04;;;;;;;13.15;7.20;;;;;;;;;;5024482;28;20026;-84
2022/08/25 09:27:40;;;;;;;15.13;7.15;;;;;;;;;;5027305;28;20047;-83
2022/08/25 09:30:07;;;;;;;12.43;7.70;;;;;;;;;;5026247;28;20109;-82
2022/08/25 09:32:40;;;;;;;12.48;7.35;;;;;;;;;;5029208;28;20024;-82
2022/08/25 09:35:06;;;;;;;14.32;7.85;;;;;;;;;;5025947;28;20039;-82
2022/08/25 09:37:31;;;;;;;10.93;6.80;;;;;;;;;;5028272;28;20370;-81
2022/08/25 09:39:57;;;;;;;12.27;7.47;;;;;;;;;;5030437;28;20033;-80
2022/08/25 09:42:42;;;;;;;10.98;7.13;;;;;;;;;;5028116;28;20278;-83
2022/08/25 09:45:10;;;;;;;13.02;6.47;;;;;;;;;;5024938;28;20071;-81
2022/08/25 09:47:41;;;;;;;12.35;7.03;;;;;;;;;;5044408;28;20041;-81
2022/08/25 09:50:13;;;;;;;10.63;7.00;;;;;;;;;;5040035;28;20029;-81
2022/08/25 09:52:39;;;;;;;10.80;6.10;;;;;;;;;;5040604;28;20124;-80
2022/08/25 09:55:07;;;;;;;14.02;6.80;;;;;;;;;;5029175;28;20426;-82
2022/08/25 09:57:41;;;;;;;11.35;6.03;;;;;;;;;;5028250;28;20028;-80
2022/08/25 10:00:20;;;;;;;11.57;6.40;;;;;;;;;;5044728;28;20512;-81
2022/08/25 10:03:00;;;;;;;11.73;6.18;;;;;;;;;;5024204;28;20041;-81
2022/08/25 10:05:26;;;;;;;8.00;6.10;;;;;;;;;;5021490;28;20466;-82
2022/08/25 10:07:56;;;;;;;7.35;5.28;;;;;;;;;;5021956;28;20040;-81
2022/08/25 10:10:41;;;;;;;10.85;5.22;;;;;;;;;;5019609;28;20034;-81
2022/08/25 10:13:16;;;;;;;11.57;6.15;;;;;;;;;;5019591;28;20042;-81
2022/08/25 10:15:42;;;;;;;11.48;5.55;;;;;;;;;;5025272;28;20559;-81
2022/08/25 10:18:24;;;;;;;9.20;5.32;;;;;;;;;;5036250;28;20029;-80
2022/08/25 10:20:49;;;;;;;;;;;;;;;;;;5028486;28;20017;-80
2022/08/25 10:23:14;;;;;;;9.68;4.97;;;;;;;;;;5034027;28;20376;-82
2022/08/25 10:25:42;;;;;;;8.70;4.68;;;;;;;;;;5030180;28;20120;-81
2022/08/25 10:28:28;;;;;;;8.30;4.68;;;;;;;;;;5030235;28;20029;-82
2022/08/25 10:31:17;;;;;;;8.30;4.72;;;;;;;;;;5019629;28;20472;-82
2022/08/25 10:33:44;;;;;;;5.00;4.00;;;;;;;;;;5022590;28;20091;-81
2022/08/25 10:36:35;;;;;;;6.95;3.90;;;;;;;;;;5028515;28;20024;-83
2022/08/25 10:39:01;;;;;;;9.55;4.40;;;;;;;;;;5005476;28;20047;-84
2022/08/25 10:41:32;;;;;;;10.55;4.55;;;;;;;;;;5033428;28;20029;-81
2022/08/25 10:44:00;;;;;;;8.25;4.72;;;;;;;;;;5037980;28;20022;-81
2022/08/25 10:46:34;;;;;;;16.67;5.13;;;;;;;;;;5030509;28;20021;-82
2022/08/25 10:48:59;;;;;;;9.95;5.30;;;;;;;;;;5030446;28;20040;-81
2022/08/25 10:51:31;;;;;;;9.20;4.67;;;;;;;;;;5045019;28;20044;-81
2022/08/25 10:54:04;;;;;;;5.50;3.50;;;;;;;;;;5026999;28;20836;-81
2022/08/25 10:56:39;;;;;;;7.13;3.83;;;;;;;;;;5031634;28;20042;-83
2022/08/25 10:59:23;;;;;;;6.35;4.05;;;;;;;;;;5024759;28;20445;-83
2022/08/25 11:01:54;;;;;;;7.47;4.38;;;;;;;;;;5044546;28;20056;-83
2022/08/25 11:04:55;;;;;;;8.63;3.83;;;;;;;;;;5036356;28;20083;-81
2022/08/25 11:07:23;;;;;;;5.10;3.72;;;;;;;;;;4984781;28;20034;-83
2022/08/25 11:09:50;;;;;;;8.05;4.40;;;;;;;;;;5023024;28;20077;-81
2022/08/25 11:12:29;;;;;;;6.13;4.00;;;;;;;;;;5026532;28;20494;-83
2022/08/25 11:15:00;;;;;;;5.97;4.15;;;;;;;;;;5020760;28;20477;-82
2022/08/25 11:17:41;;;;;;;6.10;3.53;;;;;;;;;;5028197;28;20048;-82
2022/08/25 11:20:12;;;;;;;5.25;4.28;;;;;;;;;;5051212;28;20032;-81
2022/08/25 11:22:41;;;;;;;7.57;4.63;;;;;;;;;;5023065;28;20475;-81
2022/08/25 11:25:06;;;;;;;5.78;4.38;;;;;;;;;;5031257;28;20025;-83
2022/08/25 11:27:52;;;;;;;7.40;4.38;;;;;;;;;;5047399;28;20622;-81
2022/08/25 11:30:18;;;;;;;7.15;4.40;;;;;;;;;;5029420;28;20090;-81
2022/08/25 11:32:45;;;;;;;11.23;5.20;;;;;;;;;;5032265;28;20029;-81
2022/08/25 11:35:11;;;;;;;10.45;4.30;;;;;;;;;;5029027;28;20037;-83
2022/08/25 11:37:59;;;;;;;7.47;4.57;;;;;;;;;;5028191;28;20029;-81
2022/08/25 11:40:40;;;;;;;6.80;4.18;;;;;;;;;;5043032;28;20049;-83
2022/08/25 11:43:08;;;;;;;9.30;3.97;;;;;;;;;;5028865;28;20021;-83
2022/08/25 11:45:36;;;;;;;6.78;4.30;;;;;;;;;;5030237;28;20017;-80
2022/08/25 11:48:18;;;;;;;6.10;4.05;;;;;;;;;;5039157;28;20266;-84
2022/08/25 11:50:57;;;;;;;6.10;4.45;;;;;;;;;;5028057;28;20068;-81
2022/08/25 11:53:39;;;;;;;6.82;3.78;;;;;;;;;;5014380;28;20492;-82
2022/08/25 11:56:11;;;;;;;8.57;4.35;;;;;;;;;;5041375;28;20025;-85
2022/08/25 11:58:54;;;;;;;6.18;4.72;;;;;;;;;;5026852;28;20052;-80
2022/08/25 12:01:38;;;;;;;7.55;4.78;;;;;;;;;;5028975;28;20685;-83
2022/08/25 12:04:12;;;;;;;8.55;4.20;;;;;;;;;;5031079;28;20017;-84
2022/08/25 12:06:57;;;;;;;10.05;4.47;;;;;;;;;;5035501;28;20026;-81
2022/08/25 12:09:22;;;;;;;6.13;4.60;;;;;;;;;;5029653;28;20095;-84
2022/08/25 12:11:53;;;;;;;5.95;4.30;;;;;;;;;;5030025;28;20041;-81
2022/08/25 12:14:21;;;;;;;6.07;4.47;;;;;;;;;;5028166;28;20033;-80
2022/08/25 12:16:49;;;;;;;8.50;5.13;;;;;;;;;;5038187;28;20035;-82
2022/08/25 12:19:22;;;;;;;11.05;4.90;;;;;;;;;;5042791;28;20072;-84
2022/08/25 12:21:48;;;;;;;12.93;4.20;;;;;;;;;;5028425;28;20489;-83
2022/08/25 12:24:15;;;;;;;5.13;4.55;;;;;;;;;;5023580;28;20022;-80
2022/08/25 12:26:46;;;;;;;6.50;4.45;;;;;;;;;;5047657;28;20125;-83
2022/08/25 12:29:14;;;;;;;5.60;4.38;;;;;;;;;;5024162;28;20077;-83
2022/08/25 12:31:58;;;;;;;5.15;4.60;;;;;;;;;;5031590;28;20035;-80
2022/08/25 12:34:44;;;;;;;7.15;4.55;;;;;;;;;;5039138;28;20414;-80
2022/08/25 12:37:12;;;;;;;9.02;5.00;;;;;;;;;;5044739;28;20033;-83
2022/08/25 12:39:58;;;;;;;8.52;4.80;;;;;;;;;;5028461;28;20025;-82
2022/08/25 12:42:39;;;;;;;7.40;4.78;;;;;;;;;;5024635;28;20037;-82
2022/08/25 12:45:13;;;;;;;8.93;4.93;;;;;;;;;;5026917;28;20385;-80
2022/08/25 12:47:41;;;;;;;7.55;4.55;;;;;;;;;;5030467;28;20018;-83
2022/08/25 12:50:25;;;;;;;5.40;4.70;;;;;;;;;;5029134;28;20116;-83
2022/08/25 12:52:51;;;;;;;6.35;4.22;;;;;;;;;;5025041;28;20025;-80
2022/08/25 12:55:16;;;;;;;10.48;4.45;;;;;;;;;;5025762;28;20372;-80
2022/08/25 12:57:43;;;;;;;6.68;5.13;;;;;;;;;;5023728;28;20079;-82
2022/08/25 13:00:15;;;;;;;7.70;4.28;;;;;;;;;;5022920;28;20029;-77
2022/08/25 13:02:47;;;;;;;11.63;5.40;;;;;;;;;;5041200;28;20112;-79
2022/08/25 13:05:19;;;;;;;7.60;4.80;;;;;;;;;;5031514;28;20068;-77
2022/08/25 13:07:50;;;;;;;6.22;5.18;;;;;;;;;;5028958;28;20478;-79
2022/08/25 13:10:33;;;;;;;7.50;4.95;;;;;;;;;;5032885;28;20034;-79
2022/08/25 13:13:09;;;;;;;4.72;4.00;;;;;;;;;;5031814;28;20046;-78
2022/08/25 13:15:39;;;;;;;7.53;4.80;;;;;;;;;;5030304;28;20501;-79
2022/08/25 13:18:23;;;;;;;4.93;4.22;;;;;;;;;;5025076;28;20120;-80
2022/08/25 13:20:54;;;;;;;4.35;3.95;;;;;;;;;;5031039;28;20036;-77
2022/08/25 13:23:23;;;;;;;8.23;4.55;;;;;;;;;;5024157;28;20486;-76
2022/08/25 13:25:50;;;;;;;5.03;4.53;;;;;;;;;;5033346;28;20047;-79
2022/08/25 13:28:42;;;;;;;7.22;4.53;;;;;;;;;;5033364;28;20033;-80
2022/08/25 13:31:13;;;;;;;8.27;4.40;;;;;;;;;;5025253;28;20120;-79
2022/08/25 13:33:48;;;;;;;6.03;4.55;;;;;;;;;;5032238;28;20041;-79
2022/08/25 13:39:10;;;;;;;5.18;3.38;;;;;;;;;;5031019;28;20071;-79
2022/08/25 13:41:35;;;;;;;9.68;4.38;;;;;;;;;;5032160;28;20087;-79
2022/08/25 13:44:01;;;;;;;14.98;5.05;;;;;;;;;;5028234;28;20025;-76
2022/08/25 13:46:26;;;;;;;5.27;4.57;;;;;;;;;;5031366;28;20053;-77
2022/08/25 13:49:01;;;;;;;6.43;4.85;;;;;;;;;;5030437;28;20313;-78
2022/08/25 13:51:27;;;;;;;7.28;4.00;;;;;;;;;;5030490;28;20045;-80
2022/08/25 13:53:52;;;;;;;7.18;4.18;;;;;;;;;;5023145;28;20058;-79
2022/08/25 13:56:26;;;;;;;5.32;4.82;;;;;;;;;;5032628;28;20025;-80
2022/08/25 13:58:51;;;;;;;5.18;4.13;;;;;;;;;;5032487;28;20025;-80
2022/08/25 14:01:24;;;;;;;5.65;4.72;;;;;;;;;;5032119;28;20029;-79
2022/08/25 14:03:50;;;;;;;6.50;4.55;;;;;;;;;;5027024;28;20017;-78
2022/08/25 14:06:15;;;;;;;5.68;4.65;;;;;;;;;;5024375;28;20125;-77
2022/08/25 14:08:43;;;;;;;8.10;4.37;;;;;;;;;;5029730;28;20034;-79
2022/08/25 14:11:29;;;;;;;5.35;4.47;;;;;;;;;;5063690;28;20644;-77
2022/08/25 14:14:08;;;;;;;6.63;4.22;;;;;;;;;;5038169;28;20094;-77
2022/08/25 14:16:46;;;;;;;10.15;4.82;;;;;;;;;;5025079;28;20025;-77
2022/08/25 14:19:14;;;;;;;9.65;4.70;;;;;;;;;;5032957;28;20037;-77
2022/08/25 14:21:39;;;;;;;4.97;4.47;;;;;;;;;;5031208;28;20477;-79
2022/08/25 14:24:05;;;;;;;6.03;4.30;;;;;;;;;;5039033;28;20029;-77
2022/08/25 14:26:31;;;;;;;5.65;4.13;;;;;;;;;;5028016;28;20032;-76
2022/08/25 14:28:56;;;;;;;8.73;4.60;;;;;;;;;;5031535;28;20397;-76
2022/08/25 14:31:26;;;;;;;8.50;4.07;;;;;;;;;;5032105;28;20087;-79
2022/08/25 14:33:57;;;;;;;5.05;3.75;;;;;;;;;;5029880;28;20485;-76
2022/08/25 14:36:27;;;;;;;4.35;3.95;;;;;;;;;;5028840;28;20028;-77
2022/08/25 14:38:53;;;;;;;4.60;3.95;;;;;;;;;;5030920;28;20090;-78
2022/08/25 14:41:18;;;;;;;6.43;4.40;;;;;;;;;;5025401;28;20036;-76
2022/08/25 14:43:44;;;;;;;5.63;3.67;;;;;;;;;;5031892;28;20456;-79
2022/08/25 14:46:13;;;;;;;5.47;4.00;;;;;;;;;;5032840;28;20040;-78
2022/08/25 14:48:40;;;;;;;5.55;4.10;;;;;;;;;;5044774;28;20087;-79
2022/08/25 14:51:05;;;;;;;5.22;4.50;;;;;;;;;;5040424;28;20029;-79
2022/08/25 14:53:31;;;;;;;5.75;4.90;;;;;;;;;;5032803;28;20029;-76